sensor_id;sensor_type;location;lat;lon;timestamp;temperature;humidity
65036;DHT22;51603;49.300;8.880;2023-05-10T00:00:27;13.30;99.90
65036;DHT22;51603;49.300;8.880;2023-05-10T00:02:53;13.30;99.90
65036;DHT22;51603;49.300;8.880;2023-05-10T00:05:18;13.20;99.90
65036;DHT22;51603;49.300;8.880;2023-05-10T00:07:44;13.20;99.90
65036;DHT22;51603;49.300;8.880;2023-05-10T00:10:10;13.20;99.90
65036;DHT22;51603;49.300;8.880;2023-05-10T00:12:36;13.20;99.90
65036;DHT22;51603;49.300;8.880;2023-05-10T00:15:02;13.20;99.90
65036;DHT22;51603;49.300;8.880;2023-05-10T00:17:28;13.20;99.90
65036;DHT22;51603;49.300;8.880;2023-05-10T00:19:53;13.20;99.90
65036;DHT22;51603;49.300;8.880;2023-05-10T00:22:19;13.20;99.90
65036;DHT22;51603;49.300;8.880;2023-05-10T00:24:45;13.20;99.90
65036;DHT22;51603;49.300;8.880;2023-05-10T00:27:11;13.20;99.90
65036;DHT22;51603;49.300;8.880;2023-05-10T00:29:37;13.20;99.90
65036;DHT22;51603;49.300;8.880;2023-05-10T00:32:02;13.20;99.90
65036;DHT22;51603;49.300;8.880;2023-05-10T00:34:28;13.20;99.90
65036;DHT22;51603;49.300;8.880;2023-05-10T00:36:53;13.10;99.90
65036;DHT22;51603;49.300;8.880;2023-05-10T00:39:19;13.20;99.90
65036;DHT22;51603;49.300;8.880;2023-05-10T00:41:45;13.10;99.90
65036;DHT22;51603;49.300;8.880;2023-05-10T00:44:11;13.10;99.90
65036;DHT22;51603;49.300;8.880;2023-05-10T00:46:36;13.10;99.90
65036;DHT22;51603;49.300;8.880;2023-05-10T00:49:02;13.10;99.90
65036;DHT22;51603;49.300;8.880;2023-05-10T00:51:28;13.10;99.90
65036;DHT22;51603;49.300;8.880;2023-05-10T00:53:54;13.10;99.90
65036;DHT22;51603;49.300;8.880;2023-05-10T00:56:21;13.00;99.90
65036;DHT22;51603;49.300;8.880;2023-05-10T00:58:48;13.00;99.90
65036;DHT22;51603;49.300;8.880;2023-05-10T01:01:14;13.00;99.90
65036;DHT22;51603;49.300;8.880;2023-05-10T01:03:40;13.10;99.90
65036;DHT22;51603;49.300;8.880;2023-05-10T01:06:06;13.00;99.90
65036;DHT22;51603;49.300;8.880;2023-05-10T01:08:31;13.00;99.90
65036;DHT22;51603;49.300;8.880;2023-05-10T01:10:57;13.00;99.90
65036;DHT22;51603;49.300;8.880;2023-05-10T01:13:33;13.00;99.90
65036;DHT22;51603;49.300;8.880;2023-05-10T01:15:59;13.00;99.90
65036;DHT22;51603;49.300;8.880;2023-05-10T01:18:28;13.00;99.90
65036;DHT22;51603;49.300;8.880;2023-05-10T01:21:06;13.00;99.90
65036;DHT22;51603;49.300;8.880;2023-05-10T01:29:14;12.90;99.90
65036;DHT22;51603;49.300;8.880;2023-05-10T01:32:07;12.90;99.90
65036;DHT22;51603;49.300;8.880;2023-05-10T01:34:47;12.90;99.90
65036;DHT22;51603;49.300;8.880;2023-05-10T01:37:23;12.90;99.90
65036;DHT22;51603;49.300;8.880;2023-05-10T01:40:00;12.90;99.90
65036;DHT22;51603;49.300;8.880;2023-05-10T01:42:31;12.80;99.90
65036;DHT22;51603;49.300;8.880;2023-05-10T01:45:23;12.90;99.90
65036;DHT22;51603;49.300;8.880;2023-05-10T01:47:54;12.80;99.90
65036;DHT22;51603;49.300;8.880;2023-05-10T01:50:27;12.80;99.90
65036;DHT22;51603;49.300;8.880;2023-05-10T01:52:56;12.80;99.90
65036;DHT22;51603;49.300;8.880;2023-05-10T01:55:26;12.80;99.90
65036;DHT22;51603;49.300;8.880;2023-05-10T01:57:58;12.80;99.90
65036;DHT22;51603;49.300;8.880;2023-05-10T02:00:26;12.80;99.90
65036;DHT22;51603;49.300;8.880;2023-05-10T02:02:52;12.80;99.90
65036;DHT22;51603;49.300;8.880;2023-05-10T02:05:20;12.80;99.90
65036;DHT22;51603;49.300;8.880;2023-05-10T02:07:47;12.80;99.90
65036;DHT22;51603;49.300;8.880;2023-05-10T02:10:14;12.80;99.90
65036;DHT22;51603;49.300;8.880;2023-05-10T02:12:46;12.80;99.90
65036;DHT22;51603;49.300;8.880;2023-05-10T02:15:17;12.80;99.90
65036;DHT22;51603;49.300;8.880;2023-05-10T02:17:44;12.80;99.90
65036;DHT22;51603;49.300;8.880;2023-05-10T02:20:12;12.80;99.90
65036;DHT22;51603;49.300;8.880;2023-05-10T02:22:39;12.70;99.90
65036;DHT22;51603;49.300;8.880;2023-05-10T02:25:06;12.70;99.90
65036;DHT22;51603;49.300;8.880;2023-05-10T02:27:32;12.70;99.90
65036;DHT22;51603;49.300;8.880;2023-05-10T02:29:59;12.70;99.90
65036;DHT22;51603;49.300;8.880;2023-05-10T02:32:26;12.70;99.90
65036;DHT22;51603;49.300;8.880;2023-05-10T02:34:52;12.70;99.90
65036;DHT22;51603;49.300;8.880;2023-05-10T02:37:21;12.70;99.90
65036;DHT22;51603;49.300;8.880;2023-05-10T02:39:52;12.70;99.90
65036;DHT22;51603;49.300;8.880;2023-05-10T02:42:22;12.70;99.90
65036;DHT22;51603;49.300;8.880;2023-05-10T02:44:51;12.70;99.90
65036;DHT22;51603;49.300;8.880;2023-05-10T02:47:18;12.70;99.90
65036;DHT22;51603;49.300;8.880;2023-05-10T02:49:44;12.60;99.90
65036;DHT22;51603;49.300;8.880;2023-05-10T02:52:10;12.70;99.90
65036;DHT22;51603;49.300;8.880;2023-05-10T02:54:49;12.70;99.90
65036;DHT22;51603;49.300;8.880;2023-05-10T02:57:16;12.70;99.90
65036;DHT22;51603;49.300;8.880;2023-05-10T02:59:44;12.70;99.90
65036;DHT22;51603;49.300;8.880;2023-05-10T03:02:12;12.70;99.90
65036;DHT22;51603;49.300;8.880;2023-05-10T03:04:38;12.70;99.90
65036;DHT22;51603;49.300;8.880;2023-05-10T03:07:03;12.70;99.90
65036;DHT22;51603;49.300;8.880;2023-05-10T03:09:29;12.70;99.90
65036;DHT22;51603;49.300;8.880;2023-05-10T03:12:15;12.70;99.90
65036;DHT22;51603;49.300;8.880;2023-05-10T03:17:55;12.70;99.90
65036;DHT22;51603;49.300;8.880;2023-05-10T03:20:32;12.60;99.90
65036;DHT22;51603;49.300;8.880;2023-05-10T03:23:07;12.60;99.90
65036;DHT22;51603;49.300;8.880;2023-05-10T03:25:35;12.60;99.90
65036;DHT22;51603;49.300;8.880;2023-05-10T03:28:01;12.70;99.90
65036;DHT22;51603;49.300;8.880;2023-05-10T03:30:28;12.70;99.90
65036;DHT22;51603;49.300;8.880;2023-05-10T03:32:54;12.70;99.90
65036;DHT22;51603;49.300;8.880;2023-05-10T03:35:20;12.70;99.90
65036;DHT22;51603;49.300;8.880;2023-05-10T03:37:45;12.70;99.90
65036;DHT22;51603;49.300;8.880;2023-05-10T03:40:12;12.70;99.90
65036;DHT22;51603;49.300;8.880;2023-05-10T03:42:37;12.70;99.90
65036;DHT22;51603;49.300;8.880;2023-05-10T03:45:03;12.70;99.90
65036;DHT22;51603;49.300;8.880;2023-05-10T03:47:29;12.70;99.90
65036;DHT22;51603;49.300;8.880;2023-05-10T03:49:55;12.70;99.90
65036;DHT22;51603;49.300;8.880;2023-05-10T03:52:20;12.70;99.90
65036;DHT22;51603;49.300;8.880;2023-05-10T03:54:46;12.70;99.90
65036;DHT22;51603;49.300;8.880;2023-05-10T03:57:11;12.70;99.90
65036;DHT22;51603;49.300;8.880;2023-05-10T03:59:37;12.70;99.90
65036;DHT22;51603;49.300;8.880;2023-05-10T04:02:02;12.70;99.90
65036;DHT22;51603;49.300;8.880;2023-05-10T04:04:28;12.70;99.90
65036;DHT22;51603;49.300;8.880;2023-05-10T04:06:54;12.70;99.90
65036;DHT22;51603;49.300;8.880;2023-05-10T04:09:20;12.70;99.90
65036;DHT22;51603;49.300;8.880;2023-05-10T04:11:45;12.60;99.90
65036;DHT22;51603;49.300;8.880;2023-05-10T04:14:11;12.70;99.90
65036;DHT22;51603;49.300;8.880;2023-05-10T04:16:36;12.70;99.90
65036;DHT22;51603;49.300;8.880;2023-05-10T04:19:02;12.70;99.90
65036;DHT22;51603;49.300;8.880;2023-05-10T04:21:28;12.70;99.90
65036;DHT22;51603;49.300;8.880;2023-05-10T04:23:53;12.70;99.90
65036;DHT22;51603;49.300;8.880;2023-05-10T04:26:19;12.70;99.90
65036;DHT22;51603;49.300;8.880;2023-05-10T04:28:45;12.70;99.90
65036;DHT22;51603;49.300;8.880;2023-05-10T04:31:11;12.70;99.90
65036;DHT22;51603;49.300;8.880;2023-05-10T04:33:36;12.70;99.90
65036;DHT22;51603;49.300;8.880;2023-05-10T04:36:03;12.70;99.90
65036;DHT22;51603;49.300;8.880;2023-05-10T04:38:29;12.70;99.90
65036;DHT22;51603;49.300;8.880;2023-05-10T04:41:06;12.70;99.90
65036;DHT22;51603;49.300;8.880;2023-05-10T04:43:32;12.70;99.90
65036;DHT22;51603;49.300;8.880;2023-05-10T04:45:58;12.60;99.90
65036;DHT22;51603;49.300;8.880;2023-05-10T04:48:23;12.70;99.90
65036;DHT22;51603;49.300;8.880;2023-05-10T04:50:49;12.70;99.90
65036;DHT22;51603;49.300;8.880;2023-05-10T04:53:14;12.70;99.90
65036;DHT22;51603;49.300;8.880;2023-05-10T04:55:40;12.70;99.90
65036;DHT22;51603;49.300;8.880;2023-05-10T04:58:05;12.80;99.90
65036;DHT22;51603;49.300;8.880;2023-05-10T05:00:31;12.70;99.90
65036;DHT22;51603;49.300;8.880;2023-05-10T05:02:58;12.80;99.90
65036;DHT22;51603;49.300;8.880;2023-05-10T05:05:23;12.80;99.90
65036;DHT22;51603;49.300;8.880;2023-05-10T05:07:49;12.80;99.90
65036;DHT22;51603;49.300;8.880;2023-05-10T05:10:14;12.80;99.90
65036;DHT22;51603;49.300;8.880;2023-05-10T05:12:40;12.80;99.90
65036;DHT22;51603;49.300;8.880;2023-05-10T05:15:06;12.90;99.90
65036;DHT22;51603;49.300;8.880;2023-05-10T05:17:33;12.90;99.90
65036;DHT22;51603;49.300;8.880;2023-05-10T05:19:59;12.90;99.90
65036;DHT22;51603;49.300;8.880;2023-05-10T05:22:24;12.80;99.90
65036;DHT22;51603;49.300;8.880;2023-05-10T05:24:53;12.80;99.90
65036;DHT22;51603;49.300;8.880;2023-05-10T05:27:19;12.80;99.90
65036;DHT22;51603;49.300;8.880;2023-05-10T05:29:47;12.80;99.90
65036;DHT22;51603;49.300;8.880;2023-05-10T05:32:13;12.80;99.90
65036;DHT22;51603;49.300;8.880;2023-05-10T05:34:38;12.90;99.90
65036;DHT22;51603;49.300;8.880;2023-05-10T05:37:04;12.90;99.90
65036;DHT22;51603;49.300;8.880;2023-05-10T05:39:29;12.90;99.90
65036;DHT22;51603;49.300;8.880;2023-05-10T05:41:55;12.90;99.90
65036;DHT22;51603;49.300;8.880;2023-05-10T05:44:21;12.90;99.90
65036;DHT22;51603;49.300;8.880;2023-05-10T05:46:46;12.90;99.90
65036;DHT22;51603;49.300;8.880;2023-05-10T05:49:12;13.00;99.90
65036;DHT22;51603;49.300;8.880;2023-05-10T05:51:37;13.00;99.90
65036;DHT22;51603;49.300;8.880;2023-05-10T05:54:03;13.00;99.90
65036;DHT22;51603;49.300;8.880;2023-05-10T05:56:29;13.00;99.90
65036;DHT22;51603;49.300;8.880;2023-05-10T05:58:55;13.10;99.90
65036;DHT22;51603;49.300;8.880;2023-05-10T06:01:21;13.10;99.90
65036;DHT22;51603;49.300;8.880;2023-05-10T06:03:46;13.10;99.90
65036;DHT22;51603;49.300;8.880;2023-05-10T06:06:12;13.10;99.90
65036;DHT22;51603;49.300;8.880;2023-05-10T06:08:38;13.10;99.90
65036;DHT22;51603;49.300;8.880;2023-05-10T06:11:03;13.10;99.90
65036;DHT22;51603;49.300;8.880;2023-05-10T06:13:29;13.10;99.90
65036;DHT22;51603;49.300;8.880;2023-05-10T06:15:58;13.10;99.90
65036;DHT22;51603;49.300;8.880;2023-05-10T06:18:24;13.10;99.90
65036;DHT22;51603;49.300;8.880;2023-05-10T06:20:49;13.20;99.90
65036;DHT22;51603;49.300;8.880;2023-05-10T06:23:15;13.20;99.90
65036;DHT22;51603;49.300;8.880;2023-05-10T06:25:41;13.30;99.90
65036;DHT22;51603;49.300;8.880;2023-05-10T06:28:06;13.30;99.90
65036;DHT22;51603;49.300;8.880;2023-05-10T06:30:32;13.30;99.90
65036;DHT22;51603;49.300;8.880;2023-05-10T06:32:57;13.40;99.90
65036;DHT22;51603;49.300;8.880;2023-05-10T06:35:23;13.40;99.90
65036;DHT22;51603;49.300;8.880;2023-05-10T06:37:49;13.40;99.90
65036;DHT22;51603;49.300;8.880;2023-05-10T06:40:15;13.40;99.90
65036;DHT22;51603;49.300;8.880;2023-05-10T06:42:40;13.40;99.90
65036;DHT22;51603;49.300;8.880;2023-05-10T06:45:07;13.30;99.90
65036;DHT22;51603;49.300;8.880;2023-05-10T06:47:33;13.30;99.90
65036;DHT22;51603;49.300;8.880;2023-05-10T06:49:59;13.40;99.90
65036;DHT22;51603;49.300;8.880;2023-05-10T06:52:25;13.30;99.90
65036;DHT22;51603;49.300;8.880;2023-05-10T06:54:50;13.30;99.90
65036;DHT22;51603;49.300;8.880;2023-05-10T06:57:16;13.30;99.90
65036;DHT22;51603;49.300;8.880;2023-05-10T06:59:41;13.30;99.90
65036;DHT22;51603;49.300;8.880;2023-05-10T07:02:07;13.30;99.90
65036;DHT22;51603;49.300;8.880;2023-05-10T07:04:32;13.30;99.90
65036;DHT22;51603;49.300;8.880;2023-05-10T07:06:58;13.30;99.90
65036;DHT22;51603;49.300;8.880;2023-05-10T07:09:23;13.30;99.90
65036;DHT22;51603;49.300;8.880;2023-05-10T07:11:49;13.30;99.90
65036;DHT22;51603;49.300;8.880;2023-05-10T07:14:15;13.30;99.90
65036;DHT22;51603;49.300;8.880;2023-05-10T07:16:40;13.30;99.90
65036;DHT22;51603;49.300;8.880;2023-05-10T07:19:06;13.30;99.90
65036;DHT22;51603;49.300;8.880;2023-05-10T07:21:32;13.40;99.90
65036;DHT22;51603;49.300;8.880;2023-05-10T07:23:58;13.40;99.90
65036;DHT22;51603;49.300;8.880;2023-05-10T07:26:23;13.50;99.90
65036;DHT22;51603;49.300;8.880;2023-05-10T07:28:49;13.50;99.90
65036;DHT22;51603;49.300;8.880;2023-05-10T07:31:15;13.50;99.90
65036;DHT22;51603;49.300;8.880;2023-05-10T07:33:40;13.50;99.90
65036;DHT22;51603;49.300;8.880;2023-05-10T07:36:06;13.50;99.90
65036;DHT22;51603;49.300;8.880;2023-05-10T07:38:32;13.50;99.90
65036;DHT22;51603;49.300;8.880;2023-05-10T07:40:57;13.60;99.90
65036;DHT22;51603;49.300;8.880;2023-05-10T07:43:23;13.60;99.90
65036;DHT22;51603;49.300;8.880;2023-05-10T07:45:48;13.60;99.90
65036;DHT22;51603;49.300;8.880;2023-05-10T07:48:14;13.60;99.90
65036;DHT22;51603;49.300;8.880;2023-05-10T07:50:39;13.80;99.90
65036;DHT22;51603;49.300;8.880;2023-05-10T07:53:05;13.90;99.90
65036;DHT22;51603;49.300;8.880;2023-05-10T07:55:30;13.90;99.90
65036;DHT22;51603;49.300;8.880;2023-05-10T07:57:56;14.00;99.90
65036;DHT22;51603;49.300;8.880;2023-05-10T08:00:22;14.10;99.90
65036;DHT22;51603;49.300;8.880;2023-05-10T08:02:47;14.20;99.90
65036;DHT22;51603;49.300;8.880;2023-05-10T08:05:13;14.30;99.90
65036;DHT22;51603;49.300;8.880;2023-05-10T08:07:39;14.40;99.90
65036;DHT22;51603;49.300;8.880;2023-05-10T08:10:05;14.40;99.90
65036;DHT22;51603;49.300;8.880;2023-05-10T08:12:31;14.50;99.90
65036;DHT22;51603;49.300;8.880;2023-05-10T08:14:56;14.40;99.90
65036;DHT22;51603;49.300;8.880;2023-05-10T08:17:22;14.30;99.90
65036;DHT22;51603;49.300;8.880;2023-05-10T08:19:48;14.30;99.90
65036;DHT22;51603;49.300;8.880;2023-05-10T08:22:13;14.30;99.90
65036;DHT22;51603;49.300;8.880;2023-05-10T08:24:39;14.30;99.90
65036;DHT22;51603;49.300;8.880;2023-05-10T08:27:05;14.30;99.90
65036;DHT22;51603;49.300;8.880;2023-05-10T08:29:31;14.40;99.90
65036;DHT22;51603;49.300;8.880;2023-05-10T08:31:56;14.40;99.90
65036;DHT22;51603;49.300;8.880;2023-05-10T08:34:22;14.50;99.90
65036;DHT22;51603;49.300;8.880;2023-05-10T08:36:47;14.40;99.90
65036;DHT22;51603;49.300;8.880;2023-05-10T08:39:13;14.50;99.90
65036;DHT22;51603;49.300;8.880;2023-05-10T08:41:39;14.50;99.90
65036;DHT22;51603;49.300;8.880;2023-05-10T08:44:07;14.50;99.90
65036;DHT22;51603;49.300;8.880;2023-05-10T08:46:34;14.40;99.90
65036;DHT22;51603;49.300;8.880;2023-05-10T08:49:04;14.50;99.90
65036;DHT22;51603;49.300;8.880;2023-05-10T08:51:34;14.60;99.90
65036;DHT22;51603;49.300;8.880;2023-05-10T08:54:02;14.60;99.90
65036;DHT22;51603;49.300;8.880;2023-05-10T08:56:28;14.60;99.90
65036;DHT22;51603;49.300;8.880;2023-05-10T08:58:54;14.70;99.90
65036;DHT22;51603;49.300;8.880;2023-05-10T09:01:21;14.90;99.90
65036;DHT22;51603;49.300;8.880;2023-05-10T09:03:47;15.00;99.90
65036;DHT22;51603;49.300;8.880;2023-05-10T09:06:13;15.10;99.90
65036;DHT22;51603;49.300;8.880;2023-05-10T09:08:41;15.10;99.90
65036;DHT22;51603;49.300;8.880;2023-05-10T09:11:08;15.20;99.90
65036;DHT22;51603;49.300;8.880;2023-05-10T09:13:35;15.30;99.90
65036;DHT22;51603;49.300;8.880;2023-05-10T09:16:02;15.20;99.90
65036;DHT22;51603;49.300;8.880;2023-05-10T09:18:29;15.30;99.90
65036;DHT22;51603;49.300;8.880;2023-05-10T09:20:54;15.20;99.90
65036;DHT22;51603;49.300;8.880;2023-05-10T09:23:20;15.20;99.90
65036;DHT22;51603;49.300;8.880;2023-05-10T09:25:46;15.20;99.90
65036;DHT22;51603;49.300;8.880;2023-05-10T09:28:12;15.30;99.90
65036;DHT22;51603;49.300;8.880;2023-05-10T09:30:37;15.40;99.90
65036;DHT22;51603;49.300;8.880;2023-05-10T09:33:03;15.30;99.90
65036;DHT22;51603;49.300;8.880;2023-05-10T09:35:31;15.50;99.90
65036;DHT22;51603;49.300;8.880;2023-05-10T09:38:02;15.70;99.90
65036;DHT22;51603;49.300;8.880;2023-05-10T09:40:28;15.80;99.90
65036;DHT22;51603;49.300;8.880;2023-05-10T09:43:03;15.90;99.90
65036;DHT22;51603;49.300;8.880;2023-05-10T09:45:34;15.90;99.90
65036;DHT22;51603;49.300;8.880;2023-05-10T09:48:01;16.00;99.90
65036;DHT22;51603;49.300;8.880;2023-05-10T09:50:28;16.10;99.90
65036;DHT22;51603;49.300;8.880;2023-05-10T09:52:59;16.20;99.90
65036;DHT22;51603;49.300;8.880;2023-05-10T09:55:46;16.30;99.90
65036;DHT22;51603;49.300;8.880;2023-05-10T09:58:12;16.10;99.90
65036;DHT22;51603;49.300;8.880;2023-05-10T10:00:40;16.00;99.90
65036;DHT22;51603;49.300;8.880;2023-05-10T10:03:13;16.00;99.90
65036;DHT22;51603;49.300;8.880;2023-05-10T10:05:40;16.00;99.90
65036;DHT22;51603;49.300;8.880;2023-05-10T10:08:06;16.00;99.90
65036;DHT22;51603;49.300;8.880;2023-05-10T10:10:33;16.10;99.90
65036;DHT22;51603;49.300;8.880;2023-05-10T10:12:59;16.10;99.90
65036;DHT22;51603;49.300;8.880;2023-05-10T10:15:25;16.20;99.90
65036;DHT22;51603;49.300;8.880;2023-05-10T10:17:52;16.10;99.90
65036;DHT22;51603;49.300;8.880;2023-05-10T10:20:18;16.20;99.90
65036;DHT22;51603;49.300;8.880;2023-05-10T10:22:44;16.20;99.90
65036;DHT22;51603;49.300;8.880;2023-05-10T10:25:12;16.10;99.90
65036;DHT22;51603;49.300;8.880;2023-05-10T10:35:32;16.30;99.90
65036;DHT22;51603;49.300;8.880;2023-05-10T10:37:58;16.60;99.90
65036;DHT22;51603;49.300;8.880;2023-05-10T10:40:28;16.80;99.90
65036;DHT22;51603;49.300;8.880;2023-05-10T10:42:55;16.90;99.90
65036;DHT22;51603;49.300;8.880;2023-05-10T10:45:21;17.00;99.90
65036;DHT22;51603;49.300;8.880;2023-05-10T10:47:48;17.00;99.90
65036;DHT22;51603;49.300;8.880;2023-05-10T10:50:14;17.00;99.90
65036;DHT22;51603;49.300;8.880;2023-05-10T10:52:42;16.70;99.90
65036;DHT22;51603;49.300;8.880;2023-05-10T11:00:25;16.20;99.90
65036;DHT22;51603;49.300;8.880;2023-05-10T11:07:55;15.70;99.90
65036;DHT22;51603;49.300;8.880;2023-05-10T11:10:22;15.50;99.90
65036;DHT22;51603;49.300;8.880;2023-05-10T11:12:53;15.30;99.90
65036;DHT22;51603;49.300;8.880;2023-05-10T11:15:19;15.20;99.90
65036;DHT22;51603;49.300;8.880;2023-05-10T11:17:47;15.20;99.90
65036;DHT22;51603;49.300;8.880;2023-05-10T11:20:17;15.10;99.90
65036;DHT22;51603;49.300;8.880;2023-05-10T11:22:54;15.10;99.90
65036;DHT22;51603;49.300;8.880;2023-05-10T11:25:27;15.00;99.90
65036;DHT22;51603;49.300;8.880;2023-05-10T11:27:53;15.00;99.90
65036;DHT22;51603;49.300;8.880;2023-05-10T11:30:19;15.00;99.90
65036;DHT22;51603;49.300;8.880;2023-05-10T11:32:45;15.10;99.90
65036;DHT22;51603;49.300;8.880;2023-05-10T11:35:11;15.10;99.90
65036;DHT22;51603;49.300;8.880;2023-05-10T11:37:41;15.20;99.90
65036;DHT22;51603;49.300;8.880;2023-05-10T11:40:09;15.30;99.90
65036;DHT22;51603;49.300;8.880;2023-05-10T11:42:37;15.40;99.90
65036;DHT22;51603;49.300;8.880;2023-05-10T11:45:03;15.60;99.90
65036;DHT22;51603;49.300;8.880;2023-05-10T11:47:29;15.70;99.90
65036;DHT22;51603;49.300;8.880;2023-05-10T11:49:54;15.90;99.90
65036;DHT22;51603;49.300;8.880;2023-05-10T11:52:20;16.00;99.90
65036;DHT22;51603;49.300;8.880;2023-05-10T11:54:51;16.00;99.90
65036;DHT22;51603;49.300;8.880;2023-05-10T11:57:20;16.00;99.90
65036;DHT22;51603;49.300;8.880;2023-05-10T11:59:47;16.10;99.90
65036;DHT22;51603;49.300;8.880;2023-05-10T12:02:15;16.00;99.90
65036;DHT22;51603;49.300;8.880;2023-05-10T12:04:41;16.10;99.90
65036;DHT22;51603;49.300;8.880;2023-05-10T12:07:07;16.10;99.90
65036;DHT22;51603;49.300;8.880;2023-05-10T12:09:32;16.30;99.90
65036;DHT22;51603;49.300;8.880;2023-05-10T12:11:58;16.40;99.90
65036;DHT22;51603;49.300;8.880;2023-05-10T12:14:23;16.50;99.90
65036;DHT22;51603;49.300;8.880;2023-05-10T12:16:50;16.50;99.90
65036;DHT22;51603;49.300;8.880;2023-05-10T12:19:19;16.20;99.90
65036;DHT22;51603;49.300;8.880;2023-05-10T12:21:45;16.10;99.90
65036;DHT22;51603;49.300;8.880;2023-05-10T12:24:11;16.20;99.90
65036;DHT22;51603;49.300;8.880;2023-05-10T12:26:37;16.10;99.90
65036;DHT22;51603;49.300;8.880;2023-05-10T12:29:19;16.00;99.90
65036;DHT22;51603;49.300;8.880;2023-05-10T12:31:56;15.90;99.90
65036;DHT22;51603;49.300;8.880;2023-05-10T12:34:31;15.90;99.90
65036;DHT22;51603;49.300;8.880;2023-05-10T12:36:57;15.90;99.90
65036;DHT22;51603;49.300;8.880;2023-05-10T12:39:23;16.00;99.90
65036;DHT22;51603;49.300;8.880;2023-05-10T12:41:49;16.00;99.90
65036;DHT22;51603;49.300;8.880;2023-05-10T12:44:14;16.00;99.90
65036;DHT22;51603;49.300;8.880;2023-05-10T12:46:40;15.90;99.90
65036;DHT22;51603;49.300;8.880;2023-05-10T12:49:05;15.90;99.90
65036;DHT22;51603;49.300;8.880;2023-05-10T12:51:31;15.90;99.90
65036;DHT22;51603;49.300;8.880;2023-05-10T12:53:57;15.90;99.90
65036;DHT22;51603;49.300;8.880;2023-05-10T12:56:22;16.00;99.90
65036;DHT22;51603;49.300;8.880;2023-05-10T12:58:48;16.10;99.90
65036;DHT22;51603;49.300;8.880;2023-05-10T13:01:14;16.20;99.90
65036;DHT22;51603;49.300;8.880;2023-05-10T13:03:39;16.30;99.90
65036;DHT22;51603;49.300;8.880;2023-05-10T13:06:05;16.40;99.90
65036;DHT22;51603;49.300;8.880;2023-05-10T13:08:31;16.60;99.90
65036;DHT22;51603;49.300;8.880;2023-05-10T13:10:59;16.70;99.90
65036;DHT22;51603;49.300;8.880;2023-05-10T13:13:25;16.70;99.90
65036;DHT22;51603;49.300;8.880;2023-05-10T13:15:51;16.70;99.90
65036;DHT22;51603;49.300;8.880;2023-05-10T13:18:17;16.80;99.90
65036;DHT22;51603;49.300;8.880;2023-05-10T13:20:42;16.80;99.90
65036;DHT22;51603;49.300;8.880;2023-05-10T13:23:09;16.70;99.90
65036;DHT22;51603;49.300;8.880;2023-05-10T13:25:35;16.80;99.90
65036;DHT22;51603;49.300;8.880;2023-05-10T13:28:01;16.90;99.90
65036;DHT22;51603;49.300;8.880;2023-05-10T13:30:27;17.00;99.90
65036;DHT22;51603;49.300;8.880;2023-05-10T13:32:54;16.90;99.90
65036;DHT22;51603;49.300;8.880;2023-05-10T13:35:19;17.00;99.90
65036;DHT22;51603;49.300;8.880;2023-05-10T13:37:45;16.90;99.90
65036;DHT22;51603;49.300;8.880;2023-05-10T13:40:11;17.00;99.90
65036;DHT22;51603;49.300;8.880;2023-05-10T13:42:36;17.00;99.90
65036;DHT22;51603;49.300;8.880;2023-05-10T13:45:02;16.90;99.90
65036;DHT22;51603;49.300;8.880;2023-05-10T13:47:28;16.90;99.90
65036;DHT22;51603;49.300;8.880;2023-05-10T13:49:54;16.80;99.90
65036;DHT22;51603;49.300;8.880;2023-05-10T13:52:20;16.90;99.90
65036;DHT22;51603;49.300;8.880;2023-05-10T13:54:45;16.90;99.90
65036;DHT22;51603;49.300;8.880;2023-05-10T13:57:11;17.00;99.80
65036;DHT22;51603;49.300;8.880;2023-05-10T13:59:39;17.10;99.90
65036;DHT22;51603;49.300;8.880;2023-05-10T14:02:05;17.10;99.90
65036;DHT22;51603;49.300;8.880;2023-05-10T14:04:31;17.10;99.10
65036;DHT22;51603;49.300;8.880;2023-05-10T14:06:57;17.00;98.40
65036;DHT22;51603;49.300;8.880;2023-05-10T14:09:22;16.90;97.40
65036;DHT22;51603;49.300;8.880;2023-05-10T14:11:48;16.90;98.80
65036;DHT22;51603;49.300;8.880;2023-05-10T14:14:14;16.80;98.70
65036;DHT22;51603;49.300;8.880;2023-05-10T14:16:42;16.80;99.10
65036;DHT22;51603;49.300;8.880;2023-05-10T14:19:08;16.80;98.30
65036;DHT22;51603;49.300;8.880;2023-05-10T14:21:34;16.90;97.80
65036;DHT22;51603;49.300;8.880;2023-05-10T14:24:00;17.00;97.70
65036;DHT22;51603;49.300;8.880;2023-05-10T14:26:26;16.80;97.30
65036;DHT22;51603;49.300;8.880;2023-05-10T14:28:51;16.90;99.20
65036;DHT22;51603;49.300;8.880;2023-05-10T14:31:17;16.90;97.60
65036;DHT22;51603;49.300;8.880;2023-05-10T14:33:46;16.70;96.50
65036;DHT22;51603;49.300;8.880;2023-05-10T14:36:11;16.70;97.70
65036;DHT22;51603;49.300;8.880;2023-05-10T14:38:37;16.80;97.10
65036;DHT22;51603;49.300;8.880;2023-05-10T14:41:02;16.80;97.20
65036;DHT22;51603;49.300;8.880;2023-05-10T14:43:28;16.90;96.30
65036;DHT22;51603;49.300;8.880;2023-05-10T14:45:54;16.80;96.10
65036;DHT22;51603;49.300;8.880;2023-05-10T14:48:19;16.80;96.70
65036;DHT22;51603;49.300;8.880;2023-05-10T14:50:46;16.90;97.20
65036;DHT22;51603;49.300;8.880;2023-05-10T14:53:12;16.90;96.40
65036;DHT22;51603;49.300;8.880;2023-05-10T14:55:37;16.90;97.20
65036;DHT22;51603;49.300;8.880;2023-05-10T14:58:04;16.90;96.30
65036;DHT22;51603;49.300;8.880;2023-05-10T15:00:31;16.90;97.50
65036;DHT22;51603;49.300;8.880;2023-05-10T15:02:57;16.80;95.40
65036;DHT22;51603;49.300;8.880;2023-05-10T15:05:22;16.70;95.00
65036;DHT22;51603;49.300;8.880;2023-05-10T15:07:48;16.70;95.20
65036;DHT22;51603;49.300;8.880;2023-05-10T15:10:14;16.70;95.70
65036;DHT22;51603;49.300;8.880;2023-05-10T15:12:40;16.80;96.20
65036;DHT22;51603;49.300;8.880;2023-05-10T15:15:06;16.70;95.50
65036;DHT22;51603;49.300;8.880;2023-05-10T15:17:32;16.70;96.30
65036;DHT22;51603;49.300;8.880;2023-05-10T15:19:58;16.70;95.80
65036;DHT22;51603;49.300;8.880;2023-05-10T15:22:24;16.70;95.60
65036;DHT22;51603;49.300;8.880;2023-05-10T15:24:49;16.80;95.50
65036;DHT22;51603;49.300;8.880;2023-05-10T15:27:15;16.80;95.60
65036;DHT22;51603;49.300;8.880;2023-05-10T15:29:41;16.80;95.70
65036;DHT22;51603;49.300;8.880;2023-05-10T15:32:06;16.90;95.50
65036;DHT22;51603;49.300;8.880;2023-05-10T15:34:32;16.90;94.60
65036;DHT22;51603;49.300;8.880;2023-05-10T15:36:57;16.90;95.30
65036;DHT22;51603;49.300;8.880;2023-05-10T15:39:23;16.90;95.80
65036;DHT22;51603;49.300;8.880;2023-05-10T15:41:49;16.90;95.80
65036;DHT22;51603;49.300;8.880;2023-05-10T15:44:14;16.90;95.20
65036;DHT22;51603;49.300;8.880;2023-05-10T15:46:40;17.00;95.30
65036;DHT22;51603;49.300;8.880;2023-05-10T15:49:05;17.00;94.60
65036;DHT22;51603;49.300;8.880;2023-05-10T15:51:31;17.00;94.60
65036;DHT22;51603;49.300;8.880;2023-05-10T15:53:58;17.00;93.20